Etusivu
METAR-TAF:

METAR-TAF

Lentoasemat :

Avalon, Kalifornia, Yhdysvallat

Leveyspiiri: 33-24-18N, Pituuspiiri: 118-24-57W, korkeus merenpinnasta: 488 m

Tämänhetkinen sää

Tämä raportti tehtiin 28 minuuttia sitten, kello 12.51 UTC
Tuuli 3 kn idästä/kaakosta
Lämpötila 10°C
Kosteus 87%
Ilmanpaine 1015 hPa
Näkyvyys: 0.4 km
sumua

METAR: KAVX 171251Z AUTO 12003KT 1/4SM FG VV001 10/08 A2997 RMK AO2 SLP146 T01000083

Aika: 05:19 (13:19 UTC)


TAF: puuttuu

Säähavainnot ja -ennusteet yli 4000 lentoasemalta (METAR- ja TAF-raportit).

Käytössä olevat sääasemat on merkitty karttaan keltaisilla ja punaisilla pisteillä.

Aseta hiiri pisteen päälle nähdäksesi sääaseman nimen.

Klikkaa sitten nähdäksesi säähavainnot ja -ennusteet.

Kartan vaihtaminen: klikkaa mustalla rastilla varustettuja vihreitä pisteitä, niin voit zoomata sisään; viivalla varustettua vihreää pistettä, niin voit zoomata ulos tai vihreitä nuolia, niin pääset viereisille kartoille.


METAR-TAF: